sensor_id;sensor_type;location;lat;lon;timestamp;temperature;humidity
82351;SHT30;71951;39.366;22.950;2023-10-19T06:32:19;20;70
82351;SHT30;71951;39.366;22.950;2023-10-19T06:35:45;19;71
82351;SHT30;71951;39.366;22.950;2023-10-19T06:39:12;20;69
82351;SHT30;71951;39.366;22.950;2023-10-19T06:42:38;20;68
82351;SHT30;71951;39.366;22.950;2023-10-19T06:46:05;21;66
82351;SHT30;71951;39.366;22.950;2023-10-19T06:49:32;21;65
82351;SHT30;71951;39.366;22.950;2023-10-19T06:52:58;21;65
82351;SHT30;71951;39.366;22.950;2023-10-19T06:56:25;21;65
82351;SHT30;71951;39.366;22.950;2023-10-19T06:59:51;22;64
82351;SHT30;71951;39.366;22.950;2023-10-19T07:03:18;22;63
82351;SHT30;71951;39.366;22.950;2023-10-19T07:06:45;22;63
82351;SHT30;71951;39.366;22.950;2023-10-19T07:10:12;22;62
82351;SHT30;71951;39.366;22.950;2023-10-19T07:13:39;22;63
82351;SHT30;71951;39.366;22.950;2023-10-19T07:17:06;22;62
82351;SHT30;71951;39.366;22.950;2023-10-19T07:20:32;22;62
82351;SHT30;71951;39.366;22.950;2023-10-19T07:23:59;22;60
82351;SHT30;71951;39.366;22.950;2023-10-19T07:27:26;22;60
82351;SHT30;71951;39.366;22.950;2023-10-19T07:30:53;22;61
82351;SHT30;71951;39.366;22.950;2023-10-19T07:34:20;22;60
82351;SHT30;71951;39.366;22.950;2023-10-19T07:37:46;22;60
82351;SHT30;71951;39.366;22.950;2023-10-19T07:41:13;22;60
82351;SHT30;71951;39.366;22.950;2023-10-19T07:44:39;23;59
82351;SHT30;71951;39.366;22.950;2023-10-19T07:48:06;23;58
82351;SHT30;71951;39.366;22.950;2023-10-19T07:51:33;23;57
82351;SHT30;71951;39.366;22.950;2023-10-19T07:55:00;24;54
82351;SHT30;71951;39.366;22.950;2023-10-19T07:58:26;24;54
82351;SHT30;71951;39.366;22.950;2023-10-19T08:01:53;24;53
82351;SHT30;71951;39.366;22.950;2023-10-19T08:05:20;24;54
82351;SHT30;71951;39.366;22.950;2023-10-19T08:08:46;25;53
82351;SHT30;71951;39.366;22.950;2023-10-19T08:12:13;25;53
82351;SHT30;71951;39.366;22.950;2023-10-19T08:15:40;25;53
82351;SHT30;71951;39.366;22.950;2023-10-19T08:19:06;25;53
82351;SHT30;71951;39.366;22.950;2023-10-19T08:22:33;25;53
82351;SHT30;71951;39.366;22.950;2023-10-19T08:25:59;25;53
82351;SHT30;71951;39.366;22.950;2023-10-19T08:29:26;25;53
82351;SHT30;71951;39.366;22.950;2023-10-19T08:32:52;25;53
82351;SHT30;71951;39.366;22.950;2023-10-19T08:36:20;25;53
82351;SHT30;71951;39.366;22.950;2023-10-19T08:39:46;25;52
82351;SHT30;71951;39.366;22.950;2023-10-19T08:43:13;25;53
82351;SHT30;71951;39.366;22.950;2023-10-19T08:46:40;25;53
82351;SHT30;71951;39.366;22.950;2023-10-19T08:50:08;25;53
82351;SHT30;71951;39.366;22.950;2023-10-19T08:53:37;25;53
82351;SHT30;71951;39.366;22.950;2023-10-19T08:57:04;25;53
82351;SHT30;71951;39.366;22.950;2023-10-19T09:04:06;25;54
82351;SHT30;71951;39.366;22.950;2023-10-19T09:07:34;24;54
82351;SHT30;71951;39.366;22.950;2023-10-19T09:11:05;24;54
82351;SHT30;71951;39.366;22.950;2023-10-19T09:14:33;24;53
82351;SHT30;71951;39.366;22.950;2023-10-19T09:18:12;24;54
82351;SHT30;71951;39.366;22.950;2023-10-19T09:21:38;24;54
82351;SHT30;71951;39.366;22.950;2023-10-19T09:25:05;24;54
82351;SHT30;71951;39.366;22.950;2023-10-19T09:28:34;24;54
82351;SHT30;71951;39.366;22.950;2023-10-19T09:32:02;24;54
82351;SHT30;71951;39.366;22.950;2023-10-19T09:35:29;24;54
82351;SHT30;71951;39.366;22.950;2023-10-19T09:38:56;25;53
82351;SHT30;71951;39.366;22.950;2023-10-19T09:42:24;25;52
82351;SHT30;71951;39.366;22.950;2023-10-19T09:45:53;25;51
82351;SHT30;71951;39.366;22.950;2023-10-19T09:49:23;25;52
82351;SHT30;71951;39.366;22.950;2023-10-19T09:52:51;25;52
82351;SHT30;71951;39.366;22.950;2023-10-19T09:56:21;25;51
82351;SHT30;71951;39.366;22.950;2023-10-19T09:59:53;25;51
82351;SHT30;71951;39.366;22.950;2023-10-19T10:03:43;25;49
82351;SHT30;71951;39.366;22.950;2023-10-19T10:07:10;25;49
82351;SHT30;71951;39.366;22.950;2023-10-19T10:10:37;26;49
82351;SHT30;71951;39.366;22.950;2023-10-19T10:14:21;26;49
82351;SHT30;71951;39.366;22.950;2023-10-19T10:17:49;26;49
82351;SHT30;71951;39.366;22.950;2023-10-19T10:21:19;26;48
82351;SHT30;71951;39.366;22.950;2023-10-19T10:24:46;26;49
82351;SHT30;71951;39.366;22.950;2023-10-19T10:28:12;26;47
82351;SHT30;71951;39.366;22.950;2023-10-19T10:31:42;26;48
82351;SHT30;71951;39.366;22.950;2023-10-19T10:35:09;26;48
82351;SHT30;71951;39.366;22.950;2023-10-19T10:38:35;26;48
82351;SHT30;71951;39.366;22.950;2023-10-19T10:42:03;26;48
82351;SHT30;71951;39.366;22.950;2023-10-19T10:45:30;25;48
82351;SHT30;71951;39.366;22.950;2023-10-19T10:48:57;25;49
82351;SHT30;71951;39.366;22.950;2023-10-19T10:52:25;25;50
82351;SHT30;71951;39.366;22.950;2023-10-19T10:55:52;25;50
82351;SHT30;71951;39.366;22.950;2023-10-19T10:59:19;25;51
82351;SHT30;71951;39.366;22.950;2023-10-19T11:02:47;25;51
82351;SHT30;71951;39.366;22.950;2023-10-19T11:06:13;25;52
82351;SHT30;71951;39.366;22.950;2023-10-19T11:09:47;25;52
82351;SHT30;71951;39.366;22.950;2023-10-19T11:13:16;25;51
82351;SHT30;71951;39.366;22.950;2023-10-19T11:16:42;24;51
82351;SHT30;71951;39.366;22.950;2023-10-19T11:20:20;24;51
82351;SHT30;71951;39.366;22.950;2023-10-19T11:23:48;24;52
82351;SHT30;71951;39.366;22.950;2023-10-19T11:27:22;24;53
82351;SHT30;71951;39.366;22.950;2023-10-19T11:30:48;24;53
82351;SHT30;71951;39.366;22.950;2023-10-19T11:34:15;24;53
82351;SHT30;71951;39.366;22.950;2023-10-19T11:37:46;24;53
82351;SHT30;71951;39.366;22.950;2023-10-19T11:41:14;24;54
82351;SHT30;71951;39.366;22.950;2023-10-19T11:44:40;24;54
82351;SHT30;71951;39.366;22.950;2023-10-19T11:48:07;24;54
82351;SHT30;71951;39.366;22.950;2023-10-19T11:51:34;24;55
82351;SHT30;71951;39.366;22.950;2023-10-19T11:55:00;24;55
82351;SHT30;71951;39.366;22.950;2023-10-19T11:58:27;23;55
82351;SHT30;71951;39.366;22.950;2023-10-19T12:01:53;23;55
82351;SHT30;71951;39.366;22.950;2023-10-19T12:05:20;23;55
82351;SHT30;71951;39.366;22.950;2023-10-19T12:08:46;23;56
82351;SHT30;71951;39.366;22.950;2023-10-19T12:12:13;23;56
82351;SHT30;71951;39.366;22.950;2023-10-19T12:15:40;23;56
82351;SHT30;71951;39.366;22.950;2023-10-19T12:19:06;23;56
82351;SHT30;71951;39.366;22.950;2023-10-19T12:22:33;23;55
82351;SHT30;71951;39.366;22.950;2023-10-19T12:25:59;23;56
82351;SHT30;71951;39.366;22.950;2023-10-19T12:29:26;23;56
82351;SHT30;71951;39.366;22.950;2023-10-19T12:32:52;23;55
82351;SHT30;71951;39.366;22.950;2023-10-19T12:36:19;23;54
82351;SHT30;71951;39.366;22.950;2023-10-19T12:39:46;23;54
82351;SHT30;71951;39.366;22.950;2023-10-19T12:43:13;23;55
82351;SHT30;71951;39.366;22.950;2023-10-19T12:46:40;23;55
82351;SHT30;71951;39.366;22.950;2023-10-19T12:50:07;23;55
82351;SHT30;71951;39.366;22.950;2023-10-19T12:53:34;23;55
82351;SHT30;71951;39.366;22.950;2023-10-19T12:57:01;23;55
82351;SHT30;71951;39.366;22.950;2023-10-19T13:00:28;23;55
82351;SHT30;71951;39.366;22.950;2023-10-19T13:03:54;23;55
82351;SHT30;71951;39.366;22.950;2023-10-19T13:07:21;23;55
82351;SHT30;71951;39.366;22.950;2023-10-19T13:10:48;23;55
82351;SHT30;71951;39.366;22.950;2023-10-19T13:14:15;23;55
82351;SHT30;71951;39.366;22.950;2023-10-19T13:17:41;23;55
82351;SHT30;71951;39.366;22.950;2023-10-19T13:21:08;23;55
82351;SHT30;71951;39.366;22.950;2023-10-19T13:24:35;23;56
82351;SHT30;71951;39.366;22.950;2023-10-19T13:28:01;23;56
82351;SHT30;71951;39.366;22.950;2023-10-19T13:31:28;23;56
82351;SHT30;71951;39.366;22.950;2023-10-19T13:34:54;23;56
82351;SHT30;71951;39.366;22.950;2023-10-19T13:38:21;23;56
82351;SHT30;71951;39.366;22.950;2023-10-19T13:41:48;23;55
82351;SHT30;71951;39.366;22.950;2023-10-19T13:45:14;23;56
82351;SHT30;71951;39.366;22.950;2023-10-19T13:48:41;23;57
82351;SHT30;71951;39.366;22.950;2023-10-19T13:52:08;23;56
82351;SHT30;71951;39.366;22.950;2023-10-19T13:55:35;23;57
82351;SHT30;71951;39.366;22.950;2023-10-19T13:59:02;23;57
82351;SHT30;71951;39.366;22.950;2023-10-19T14:02:29;23;57
82351;SHT30;71951;39.366;22.950;2023-10-19T14:05:55;23;57
82351;SHT30;71951;39.366;22.950;2023-10-19T14:09:22;23;57
82351;SHT30;71951;39.366;22.950;2023-10-19T14:12:49;23;57
82351;SHT30;71951;39.366;22.950;2023-10-19T14:16:15;23;57
82351;SHT30;71951;39.366;22.950;2023-10-19T14:19:42;23;56
82351;SHT30;71951;39.366;22.950;2023-10-19T14:23:09;23;56
82351;SHT30;71951;39.366;22.950;2023-10-19T14:26:35;23;55
82351;SHT30;71951;39.366;22.950;2023-10-19T14:30:02;23;54
82351;SHT30;71951;39.366;22.950;2023-10-19T14:33:29;23;54
82351;SHT30;71951;39.366;22.950;2023-10-19T14:36:55;23;54
82351;SHT30;71951;39.366;22.950;2023-10-19T14:40:24;23;54
82351;SHT30;71951;39.366;22.950;2023-10-19T14:43:51;23;54
82351;SHT30;71951;39.366;22.950;2023-10-19T14:47:17;23;54
82351;SHT30;71951;39.366;22.950;2023-10-19T14:50:44;23;55
82351;SHT30;71951;39.366;22.950;2023-10-19T14:54:10;23;56
82351;SHT30;71951;39.366;22.950;2023-10-19T14:57:38;23;56
82351;SHT30;71951;39.366;22.950;2023-10-19T15:01:05;23;56
82351;SHT30;71951;39.366;22.950;2023-10-19T15:04:32;23;56
82351;SHT30;71951;39.366;22.950;2023-10-19T15:07:59;23;56
82351;SHT30;71951;39.366;22.950;2023-10-19T15:11:26;23;55
82351;SHT30;71951;39.366;22.950;2023-10-19T15:14:52;23;55
82351;SHT30;71951;39.366;22.950;2023-10-19T15:18:19;23;55
82351;SHT30;71951;39.366;22.950;2023-10-19T15:21:45;23;56
82351;SHT30;71951;39.366;22.950;2023-10-19T15:25:13;23;56
82351;SHT30;71951;39.366;22.950;2023-10-19T15:28:39;23;56
82351;SHT30;71951;39.366;22.950;2023-10-19T15:32:06;23;57
82351;SHT30;71951;39.366;22.950;2023-10-19T15:35:33;23;57
82351;SHT30;71951;39.366;22.950;2023-10-19T15:38:59;23;57
82351;SHT30;71951;39.366;22.950;2023-10-19T15:42:26;23;57
82351;SHT30;71951;39.366;22.950;2023-10-19T15:45:52;23;58
82351;SHT30;71951;39.366;22.950;2023-10-19T15:49:23;23;58
82351;SHT30;71951;39.366;22.950;2023-10-19T15:52:49;23;58
82351;SHT30;71951;39.366;22.950;2023-10-19T15:56:16;23;58
82351;SHT30;71951;39.366;22.950;2023-10-19T15:59:43;23;58
82351;SHT30;71951;39.366;22.950;2023-10-19T16:03:10;23;58
82351;SHT30;71951;39.366;22.950;2023-10-19T16:06:37;23;58
82351;SHT30;71951;39.366;22.950;2023-10-19T16:10:03;23;58
82351;SHT30;71951;39.366;22.950;2023-10-19T16:13:30;23;58
82351;SHT30;71951;39.366;22.950;2023-10-19T16:16:57;23;58
82351;SHT30;71951;39.366;22.950;2023-10-19T16:20:23;23;58
82351;SHT30;71951;39.366;22.950;2023-10-19T16:23:50;23;58
82351;SHT30;71951;39.366;22.950;2023-10-19T16:27:17;23;58
82351;SHT30;71951;39.366;22.950;2023-10-19T16:30:43;23;59
82351;SHT30;71951;39.366;22.950;2023-10-19T16:34:10;23;59
82351;SHT30;71951;39.366;22.950;2023-10-19T16:37:37;23;59
82351;SHT30;71951;39.366;22.950;2023-10-19T16:41:03;22;59
82351;SHT30;71951;39.366;22.950;2023-10-19T16:44:30;22;60
82351;SHT30;71951;39.366;22.950;2023-10-19T16:47:56;22;60
82351;SHT30;71951;39.366;22.950;2023-10-19T16:51:23;22;60
82351;SHT30;71951;39.366;22.950;2023-10-19T16:54:50;22;60
82351;SHT30;71951;39.366;22.950;2023-10-19T16:58:17;22;60
82351;SHT30;71951;39.366;22.950;2023-10-19T17:01:43;22;60
82351;SHT30;71951;39.366;22.950;2023-10-19T17:05:10;22;60
82351;SHT30;71951;39.366;22.950;2023-10-19T17:08:37;22;60
82351;SHT30;71951;39.366;22.950;2023-10-19T17:12:04;22;60
82351;SHT30;71951;39.366;22.950;2023-10-19T17:15:31;22;60
82351;SHT30;71951;39.366;22.950;2023-10-19T17:18:58;22;60
82351;SHT30;71951;39.366;22.950;2023-10-19T17:22:24;22;60
82351;SHT30;71951;39.366;22.950;2023-10-19T17:25:51;22;60
82351;SHT30;71951;39.366;22.950;2023-10-19T17:29:18;22;60
82351;SHT30;71951;39.366;22.950;2023-10-19T17:32:45;22;60
82351;SHT30;71951;39.366;22.950;2023-10-19T17:36:12;22;60
82351;SHT30;71951;39.366;22.950;2023-10-19T17:39:38;22;61
82351;SHT30;71951;39.366;22.950;2023-10-19T17:43:05;22;61
82351;SHT30;71951;39.366;22.950;2023-10-19T17:46:32;22;61
82351;SHT30;71951;39.366;22.950;2023-10-19T17:49:58;22;61
82351;SHT30;71951;39.366;22.950;2023-10-19T17:53:25;22;61
